Terminal Aerodrome Forecast
Issued by NWS

Home | Current Version | Previous Version | Text Only | Print | Product List | Glossary Off
Versions: 1 2 3 4 5 6 7 8 9 10 11

000
FTUS42 KMHX 272300
TAFISO
TAF
KISO 272338Z 2800/2824 19003KT P6SM SCT250
     FM280400 00000KT P6SM BKN200
     FM281200 23004KT P6SM OVC100
     FM281700 22006KT P6SM OVC025
      AMD LTD TO CLD VIS AND WIND=

USA.gov is the U.S. government's official web portal to all federal, state and local government web resources and services.